Capanema, Brazil
Current Conditions -  °F | °C
As of 8:00 AM on Friday 31 Oct 2014 (Local Time) from SARI Reporting Station
Broken Clouds Broken Clouds  
Wind Chill: 64°   Ceiling: 25000
Heat Index: 64°   Visibility: 6mi
Dew Point: 64°   Wind: 5mph
Humidity: 100%   Direction: 50°NE
Pressure: 29.88"   Gusts: NA
Location:  25.67°S, 53.81°W
Report Text: SARI 311000Z 05004KT 9999 FEW015 BKN25018/18 Q1012
Loading
Personal Weather Stations






























Interactive Weather Map
Tropical Storm Tracking
New forecast layout! Learn more

10-Day Weather Forecast

Advertisements
Track Severe Weather on mobile